sensor_id;sensor_type;location;lat;lon;timestamp;P1;durP1;ratioP1;P2;durP2;ratioP2
43676;SDS011;29275;48.800;18.102;2023-01-15T00:00:46;14.25;;;8.02;;
43676;SDS011;29275;48.800;18.102;2023-01-15T00:03:49;18.92;;;9.88;;
43676;SDS011;29275;48.800;18.102;2023-01-15T00:06:52;24.52;;;11.77;;
43676;SDS011;29275;48.800;18.102;2023-01-15T00:09:55;18.48;;;9.48;;
43676;SDS011;29275;48.800;18.102;2023-01-15T00:12:58;18.20;;;10.20;;
43676;SDS011;29275;48.800;18.102;2023-01-15T00:16:08;18.40;;;8.30;;
43676;SDS011;29275;48.800;18.102;2023-01-15T00:19:13;13.40;;;7.68;;
43676;SDS011;29275;48.800;18.102;2023-01-15T00:22:17;16.92;;;9.77;;
43676;SDS011;29275;48.800;18.102;2023-01-15T00:25:19;13.18;;;7.22;;
43676;SDS011;29275;48.800;18.102;2023-01-15T00:28:41;16.85;;;7.00;;
43676;SDS011;29275;48.800;18.102;2023-01-15T00:31:44;14.93;;;7.65;;
43676;SDS011;29275;48.800;18.102;2023-01-15T00:35:04;9.40;;;5.65;;
43676;SDS011;29275;48.800;18.102;2023-01-15T00:38:07;14.18;;;6.95;;
43676;SDS011;29275;48.800;18.102;2023-01-15T00:41:09;11.75;;;6.75;;
43676;SDS011;29275;48.800;18.102;2023-01-15T00:44:12;15.35;;;5.50;;
43676;SDS011;29275;48.800;18.102;2023-01-15T00:47:15;14.90;;;7.78;;
43676;SDS011;29275;48.800;18.102;2023-01-15T00:50:17;20.27;;;8.70;;
43676;SDS011;29275;48.800;18.102;2023-01-15T00:53:20;24.65;;;11.15;;
43676;SDS011;29275;48.800;18.102;2023-01-15T00:56:23;23.90;;;12.48;;
43676;SDS011;29275;48.800;18.102;2023-01-15T00:59:26;24.83;;;11.85;;
43676;SDS011;29275;48.800;18.102;2023-01-15T01:02:29;23.25;;;11.60;;
43676;SDS011;29275;48.800;18.102;2023-01-15T01:05:31;14.80;;;9.27;;
43676;SDS011;29275;48.800;18.102;2023-01-15T01:08:34;12.52;;;6.15;;
43676;SDS011;29275;48.800;18.102;2023-01-15T01:11:36;11.68;;;5.90;;
43676;SDS011;29275;48.800;18.102;2023-01-15T01:14:39;11.50;;;5.22;;
43676;SDS011;29275;48.800;18.102;2023-01-15T01:17:42;15.32;;;5.80;;
43676;SDS011;29275;48.800;18.102;2023-01-15T01:20:44;9.63;;;5.75;;
43676;SDS011;29275;48.800;18.102;2023-01-15T01:23:47;11.57;;;5.35;;
43676;SDS011;29275;48.800;18.102;2023-01-15T01:26:50;10.07;;;4.00;;
43676;SDS011;29275;48.800;18.102;2023-01-15T01:29:55;10.38;;;4.78;;
43676;SDS011;29275;48.800;18.102;2023-01-15T01:32:58;16.35;;;8.02;;
43676;SDS011;29275;48.800;18.102;2023-01-15T01:36:00;10.88;;;5.30;;
43676;SDS011;29275;48.800;18.102;2023-01-15T01:39:03;10.35;;;5.45;;
43676;SDS011;29275;48.800;18.102;2023-01-15T01:42:14;15.25;;;6.38;;
43676;SDS011;29275;48.800;18.102;2023-01-15T01:45:26;15.90;;;6.05;;
43676;SDS011;29275;48.800;18.102;2023-01-15T01:48:32;13.35;;;6.38;;
43676;SDS011;29275;48.800;18.102;2023-01-15T01:51:39;10.23;;;5.85;;
43676;SDS011;29275;48.800;18.102;2023-01-15T01:54:45;8.10;;;4.18;;
43676;SDS011;29275;48.800;18.102;2023-01-15T01:57:49;7.85;;;3.40;;
43676;SDS011;29275;48.800;18.102;2023-01-15T02:00:53;5.85;;;2.42;;
43676;SDS011;29275;48.800;18.102;2023-01-15T02:03:55;5.53;;;2.90;;
43676;SDS011;29275;48.800;18.102;2023-01-15T02:06:59;7.28;;;3.85;;
43676;SDS011;29275;48.800;18.102;2023-01-15T02:10:02;8.50;;;3.95;;
43676;SDS011;29275;48.800;18.102;2023-01-15T02:13:12;6.28;;;3.20;;
43676;SDS011;29275;48.800;18.102;2023-01-15T02:16:22;8.07;;;3.42;;
43676;SDS011;29275;48.800;18.102;2023-01-15T02:19:35;8.73;;;5.03;;
43676;SDS011;29275;48.800;18.102;2023-01-15T02:26:06;11.68;;;4.30;;
43676;SDS011;29275;48.800;18.102;2023-01-15T02:29:12;7.97;;;3.58;;
43676;SDS011;29275;48.800;18.102;2023-01-15T02:32:25;7.45;;;3.33;;
43676;SDS011;29275;48.800;18.102;2023-01-15T02:35:42;6.15;;;3.28;;
43676;SDS011;29275;48.800;18.102;2023-01-15T02:38:47;5.95;;;2.30;;
43676;SDS011;29275;48.800;18.102;2023-01-15T02:41:53;4.55;;;2.00;;
43676;SDS011;29275;48.800;18.102;2023-01-15T02:45:02;4.57;;;2.13;;
43676;SDS011;29275;48.800;18.102;2023-01-15T02:48:08;6.13;;;3.00;;
43676;SDS011;29275;48.800;18.102;2023-01-15T02:51:18;5.70;;;3.13;;
43676;SDS011;29275;48.800;18.102;2023-01-15T02:54:25;8.88;;;3.47;;
43676;SDS011;29275;48.800;18.102;2023-01-15T02:57:32;4.60;;;2.85;;
43676;SDS011;29275;48.800;18.102;2023-01-15T03:00:39;5.60;;;2.83;;
43676;SDS011;29275;48.800;18.102;2023-01-15T03:03:48;6.15;;;3.13;;
43676;SDS011;29275;48.800;18.102;2023-01-15T03:07:36;6.50;;;2.90;;
43676;SDS011;29275;48.800;18.102;2023-01-15T03:10:26;5.43;;;2.22;;
43676;SDS011;29275;48.800;18.102;2023-01-15T03:13:46;7.28;;;2.83;;
43676;SDS011;29275;48.800;18.102;2023-01-15T03:16:55;5.93;;;3.33;;
43676;SDS011;29275;48.800;18.102;2023-01-15T03:20:11;9.27;;;2.75;;
43676;SDS011;29275;48.800;18.102;2023-01-15T03:23:19;5.38;;;2.45;;
43676;SDS011;29275;48.800;18.102;2023-01-15T03:26:23;6.93;;;3.03;;
43676;SDS011;29275;48.800;18.102;2023-01-15T03:29:32;6.40;;;3.03;;
43676;SDS011;29275;48.800;18.102;2023-01-15T03:32:36;9.77;;;3.20;;
43676;SDS011;29275;48.800;18.102;2023-01-15T03:35:48;7.15;;;3.10;;
43676;SDS011;29275;48.800;18.102;2023-01-15T03:39:03;8.00;;;2.60;;
43676;SDS011;29275;48.800;18.102;2023-01-15T03:49:42;7.32;;;2.95;;
43676;SDS011;29275;48.800;18.102;2023-01-15T03:56:39;7.03;;;3.80;;
43676;SDS011;29275;48.800;18.102;2023-01-15T03:59:50;5.82;;;2.92;;
43676;SDS011;29275;48.800;18.102;2023-01-15T04:02:56;5.20;;;2.72;;
43676;SDS011;29275;48.800;18.102;2023-01-15T04:06:02;4.13;;;2.30;;
43676;SDS011;29275;48.800;18.102;2023-01-15T04:09:06;6.63;;;2.90;;
43676;SDS011;29275;48.800;18.102;2023-01-15T04:12:10;12.27;;;3.22;;
43676;SDS011;29275;48.800;18.102;2023-01-15T04:18:20;7.20;;;2.72;;
43676;SDS011;29275;48.800;18.102;2023-01-15T04:21:23;5.45;;;2.25;;
43676;SDS011;29275;48.800;18.102;2023-01-15T04:24:26;6.03;;;2.72;;
43676;SDS011;29275;48.800;18.102;2023-01-15T04:27:28;4.75;;;2.22;;
43676;SDS011;29275;48.800;18.102;2023-01-15T04:30:31;7.72;;;2.88;;
43676;SDS011;29275;48.800;18.102;2023-01-15T04:33:34;4.60;;;3.13;;
43676;SDS011;29275;48.800;18.102;2023-01-15T04:36:37;3.70;;;2.53;;
43676;SDS011;29275;48.800;18.102;2023-01-15T04:39:40;5.72;;;2.10;;
43676;SDS011;29275;48.800;18.102;2023-01-15T04:42:42;4.32;;;2.58;;
43676;SDS011;29275;48.800;18.102;2023-01-15T04:46:04;4.38;;;2.22;;
43676;SDS011;29275;48.800;18.102;2023-01-15T04:49:08;6.72;;;2.33;;
43676;SDS011;29275;48.800;18.102;2023-01-15T04:52:13;5.05;;;2.70;;
43676;SDS011;29275;48.800;18.102;2023-01-15T04:55:16;5.38;;;2.53;;
43676;SDS011;29275;48.800;18.102;2023-01-15T04:58:18;5.50;;;2.63;;
43676;SDS011;29275;48.800;18.102;2023-01-15T05:01:21;6.03;;;2.45;;
43676;SDS011;29275;48.800;18.102;2023-01-15T05:04:24;4.82;;;2.70;;
43676;SDS011;29275;48.800;18.102;2023-01-15T05:07:26;5.63;;;2.83;;
43676;SDS011;29275;48.800;18.102;2023-01-15T05:10:29;6.18;;;2.53;;
43676;SDS011;29275;48.800;18.102;2023-01-15T05:13:32;5.13;;;2.33;;
43676;SDS011;29275;48.800;18.102;2023-01-15T05:16:35;4.70;;;2.38;;
43676;SDS011;29275;48.800;18.102;2023-01-15T05:19:39;6.07;;;2.75;;
43676;SDS011;29275;48.800;18.102;2023-01-15T05:22:41;9.30;;;2.65;;
43676;SDS011;29275;48.800;18.102;2023-01-15T05:25:44;4.30;;;2.05;;
43676;SDS011;29275;48.800;18.102;2023-01-15T05:28:47;8.85;;;3.63;;
43676;SDS011;29275;48.800;18.102;2023-01-15T05:31:50;5.55;;;2.08;;
43676;SDS011;29275;48.800;18.102;2023-01-15T05:34:52;6.47;;;2.80;;
43676;SDS011;29275;48.800;18.102;2023-01-15T05:37:55;4.00;;;1.83;;
43676;SDS011;29275;48.800;18.102;2023-01-15T05:40:57;5.50;;;2.67;;
43676;SDS011;29275;48.800;18.102;2023-01-15T05:44:01;5.97;;;3.03;;
43676;SDS011;29275;48.800;18.102;2023-01-15T05:47:05;7.15;;;2.83;;
43676;SDS011;29275;48.800;18.102;2023-01-15T05:50:09;4.60;;;2.53;;
43676;SDS011;29275;48.800;18.102;2023-01-15T05:53:12;3.80;;;2.20;;
43676;SDS011;29275;48.800;18.102;2023-01-15T05:56:14;4.40;;;2.50;;
43676;SDS011;29275;48.800;18.102;2023-01-15T05:59:17;3.92;;;1.63;;
43676;SDS011;29275;48.800;18.102;2023-01-15T06:02:21;12.55;;;2.35;;
43676;SDS011;29275;48.800;18.102;2023-01-15T06:05:24;5.40;;;1.98;;
43676;SDS011;29275;48.800;18.102;2023-01-15T06:08:27;9.13;;;3.83;;
43676;SDS011;29275;48.800;18.102;2023-01-15T06:11:29;6.15;;;1.90;;
43676;SDS011;29275;48.800;18.102;2023-01-15T06:14:32;4.55;;;2.17;;
43676;SDS011;29275;48.800;18.102;2023-01-15T06:17:34;5.05;;;2.88;;
43676;SDS011;29275;48.800;18.102;2023-01-15T06:20:37;4.57;;;1.95;;
43676;SDS011;29275;48.800;18.102;2023-01-15T06:23:41;4.53;;;1.98;;
43676;SDS011;29275;48.800;18.102;2023-01-15T06:26:44;3.90;;;1.92;;
43676;SDS011;29275;48.800;18.102;2023-01-15T06:29:47;3.03;;;1.80;;
43676;SDS011;29275;48.800;18.102;2023-01-15T06:32:49;6.05;;;2.42;;
43676;SDS011;29275;48.800;18.102;2023-01-15T06:35:52;5.65;;;2.88;;
43676;SDS011;29275;48.800;18.102;2023-01-15T06:38:55;6.30;;;2.92;;
43676;SDS011;29275;48.800;18.102;2023-01-15T06:41:57;2.95;;;1.70;;
43676;SDS011;29275;48.800;18.102;2023-01-15T06:45:18;2.83;;;1.42;;
43676;SDS011;29275;48.800;18.102;2023-01-15T06:48:40;4.35;;;1.10;;
43676;SDS011;29275;48.800;18.102;2023-01-15T06:51:42;3.92;;;1.70;;
43676;SDS011;29275;48.800;18.102;2023-01-15T06:54:45;3.85;;;1.45;;
43676;SDS011;29275;48.800;18.102;2023-01-15T06:57:47;4.53;;;1.65;;
43676;SDS011;29275;48.800;18.102;2023-01-15T07:00:50;2.45;;;1.10;;
43676;SDS011;29275;48.800;18.102;2023-01-15T07:03:58;2.55;;;1.67;;
43676;SDS011;29275;48.800;18.102;2023-01-15T07:07:01;2.55;;;1.42;;
43676;SDS011;29275;48.800;18.102;2023-01-15T07:10:03;4.95;;;2.00;;
43676;SDS011;29275;48.800;18.102;2023-01-15T07:13:08;4.72;;;1.63;;
43676;SDS011;29275;48.800;18.102;2023-01-15T07:16:11;2.92;;;1.42;;
43676;SDS011;29275;48.800;18.102;2023-01-15T07:19:28;2.70;;;1.45;;
43676;SDS011;29275;48.800;18.102;2023-01-15T07:22:31;5.18;;;1.90;;
43676;SDS011;29275;48.800;18.102;2023-01-15T07:25:34;3.55;;;1.00;;
43676;SDS011;29275;48.800;18.102;2023-01-15T07:28:37;1.45;;;1.08;;
43676;SDS011;29275;48.800;18.102;2023-01-15T07:31:40;3.38;;;1.25;;
43676;SDS011;29275;48.800;18.102;2023-01-15T07:34:43;1.70;;;0.82;;
43676;SDS011;29275;48.800;18.102;2023-01-15T07:37:49;2.83;;;1.08;;
43676;SDS011;29275;48.800;18.102;2023-01-15T07:40:57;1.77;;;0.93;;
43676;SDS011;29275;48.800;18.102;2023-01-15T07:44:20;4.88;;;1.58;;
43676;SDS011;29275;48.800;18.102;2023-01-15T07:47:41;2.88;;;1.08;;
43676;SDS011;29275;48.800;18.102;2023-01-15T07:51:02;2.03;;;1.13;;
43676;SDS011;29275;48.800;18.102;2023-01-15T07:54:05;2.35;;;1.02;;
43676;SDS011;29275;48.800;18.102;2023-01-15T07:57:08;2.53;;;1.08;;
43676;SDS011;29275;48.800;18.102;2023-01-15T08:00:12;2.42;;;1.20;;
43676;SDS011;29275;48.800;18.102;2023-01-15T08:03:17;3.08;;;1.30;;
43676;SDS011;29275;48.800;18.102;2023-01-15T08:06:20;5.30;;;1.40;;
43676;SDS011;29275;48.800;18.102;2023-01-15T08:09:22;2.25;;;1.42;;
43676;SDS011;29275;48.800;18.102;2023-01-15T08:12:27;5.47;;;1.77;;
43676;SDS011;29275;48.800;18.102;2023-01-15T08:15:48;6.90;;;2.22;;
43676;SDS011;29275;48.800;18.102;2023-01-15T08:18:51;5.28;;;1.35;;
43676;SDS011;29275;48.800;18.102;2023-01-15T08:21:54;3.33;;;1.77;;
43676;SDS011;29275;48.800;18.102;2023-01-15T08:24:58;2.60;;;1.38;;
43676;SDS011;29275;48.800;18.102;2023-01-15T08:28:01;2.95;;;1.75;;
43676;SDS011;29275;48.800;18.102;2023-01-15T08:31:05;2.63;;;1.02;;
43676;SDS011;29275;48.800;18.102;2023-01-15T08:34:10;3.88;;;1.45;;
43676;SDS011;29275;48.800;18.102;2023-01-15T08:37:13;3.58;;;1.45;;
43676;SDS011;29275;48.800;18.102;2023-01-15T08:40:16;2.83;;;1.67;;
43676;SDS011;29275;48.800;18.102;2023-01-15T08:43:19;4.47;;;1.25;;
43676;SDS011;29275;48.800;18.102;2023-01-15T08:46:22;3.08;;;1.38;;
43676;SDS011;29275;48.800;18.102;2023-01-15T08:49:25;3.20;;;1.58;;
43676;SDS011;29275;48.800;18.102;2023-01-15T08:52:27;4.10;;;1.98;;
43676;SDS011;29275;48.800;18.102;2023-01-15T08:55:30;3.53;;;1.05;;
43676;SDS011;29275;48.800;18.102;2023-01-15T08:58:34;2.15;;;1.20;;
43676;SDS011;29275;48.800;18.102;2023-01-15T09:01:37;3.42;;;1.30;;
43676;SDS011;29275;48.800;18.102;2023-01-15T09:04:40;4.10;;;1.70;;
43676;SDS011;29275;48.800;18.102;2023-01-15T09:07:43;3.90;;;1.90;;
43676;SDS011;29275;48.800;18.102;2023-01-15T09:10:46;2.67;;;1.10;;
43676;SDS011;29275;48.800;18.102;2023-01-15T09:13:52;3.88;;;1.73;;
43676;SDS011;29275;48.800;18.102;2023-01-15T09:16:55;2.90;;;1.60;;
43676;SDS011;29275;48.800;18.102;2023-01-15T09:19:59;2.15;;;1.25;;
43676;SDS011;29275;48.800;18.102;2023-01-15T09:23:02;6.72;;;1.27;;
43676;SDS011;29275;48.800;18.102;2023-01-15T09:26:05;5.40;;;1.65;;
43676;SDS011;29275;48.800;18.102;2023-01-15T09:29:09;7.32;;;1.90;;
43676;SDS011;29275;48.800;18.102;2023-01-15T09:32:12;5.40;;;2.90;;
43676;SDS011;29275;48.800;18.102;2023-01-15T09:35:15;5.18;;;2.15;;
43676;SDS011;29275;48.800;18.102;2023-01-15T09:38:19;2.97;;;1.52;;
43676;SDS011;29275;48.800;18.102;2023-01-15T09:41:23;2.13;;;1.40;;
43676;SDS011;29275;48.800;18.102;2023-01-15T09:54:13;3.42;;;1.95;;
43676;SDS011;29275;48.800;18.102;2023-01-15T09:57:19;5.30;;;1.92;;
43676;SDS011;29275;48.800;18.102;2023-01-15T10:00:24;3.92;;;1.98;;
43676;SDS011;29275;48.800;18.102;2023-01-15T10:03:33;2.78;;;1.30;;
43676;SDS011;29275;48.800;18.102;2023-01-15T10:09:47;2.25;;;1.38;;
43676;SDS011;29275;48.800;18.102;2023-01-15T10:13:11;3.28;;;1.55;;
43676;SDS011;29275;48.800;18.102;2023-01-15T10:16:26;5.57;;;1.85;;
43676;SDS011;29275;48.800;18.102;2023-01-15T10:19:31;5.10;;;1.90;;
43676;SDS011;29275;48.800;18.102;2023-01-15T10:32:54;3.10;;;1.50;;
43676;SDS011;29275;48.800;18.102;2023-01-15T10:39:26;6.20;;;2.53;;
43676;SDS011;29275;48.800;18.102;2023-01-15T10:45:49;3.08;;;1.48;;
43676;SDS011;29275;48.800;18.102;2023-01-15T10:48:56;7.07;;;2.28;;
43676;SDS011;29275;48.800;18.102;2023-01-15T10:55:32;3.60;;;2.15;;
43676;SDS011;29275;48.800;18.102;2023-01-15T10:58:49;7.30;;;3.13;;
43676;SDS011;29275;48.800;18.102;2023-01-15T11:01:56;3.80;;;2.72;;
43676;SDS011;29275;48.800;18.102;2023-01-15T11:05:01;6.43;;;2.85;;
43676;SDS011;29275;48.800;18.102;2023-01-15T11:08:05;4.82;;;2.40;;
43676;SDS011;29275;48.800;18.102;2023-01-15T11:11:31;3.75;;;2.10;;
43676;SDS011;29275;48.800;18.102;2023-01-15T11:15:00;5.22;;;2.25;;
43676;SDS011;29275;48.800;18.102;2023-01-15T11:18:35;3.38;;;1.92;;
43676;SDS011;29275;48.800;18.102;2023-01-15T11:22:00;6.95;;;2.10;;
43676;SDS011;29275;48.800;18.102;2023-01-15T11:25:10;5.55;;;2.50;;
43676;SDS011;29275;48.800;18.102;2023-01-15T11:28:13;4.18;;;2.20;;
43676;SDS011;29275;48.800;18.102;2023-01-15T11:31:17;3.83;;;1.85;;
43676;SDS011;29275;48.800;18.102;2023-01-15T11:34:21;4.55;;;2.03;;
43676;SDS011;29275;48.800;18.102;2023-01-15T11:37:25;4.85;;;1.95;;
43676;SDS011;29275;48.800;18.102;2023-01-15T11:40:29;9.50;;;3.47;;
43676;SDS011;29275;48.800;18.102;2023-01-15T11:43:31;5.85;;;2.63;;
43676;SDS011;29275;48.800;18.102;2023-01-15T11:46:53;3.88;;;2.28;;
43676;SDS011;29275;48.800;18.102;2023-01-15T11:50:15;6.07;;;2.03;;
43676;SDS011;29275;48.800;18.102;2023-01-15T11:53:47;5.28;;;2.38;;
43676;SDS011;29275;48.800;18.102;2023-01-15T11:56:51;5.63;;;2.45;;
43676;SDS011;29275;48.800;18.102;2023-01-15T11:59:56;7.22;;;2.85;;
43676;SDS011;29275;48.800;18.102;2023-01-15T12:03:01;4.13;;;2.33;;
43676;SDS011;29275;48.800;18.102;2023-01-15T12:06:08;6.50;;;3.15;;
43676;SDS011;29275;48.800;18.102;2023-01-15T12:09:21;7.13;;;3.10;;
43676;SDS011;29275;48.800;18.102;2023-01-15T12:12:48;7.70;;;2.97;;
43676;SDS011;29275;48.800;18.102;2023-01-15T12:16:12;5.68;;;2.90;;
43676;SDS011;29275;48.800;18.102;2023-01-15T12:26:23;6.60;;;2.53;;
43676;SDS011;29275;48.800;18.102;2023-01-15T12:29:33;5.55;;;2.63;;
43676;SDS011;29275;48.800;18.102;2023-01-15T12:32:41;6.60;;;2.90;;
43676;SDS011;29275;48.800;18.102;2023-01-15T12:35:49;7.23;;;3.93;;
43676;SDS011;29275;48.800;18.102;2023-01-15T12:42:13;8.68;;;4.05;;
43676;SDS011;29275;48.800;18.102;2023-01-15T12:45:37;6.13;;;3.40;;
43676;SDS011;29275;48.800;18.102;2023-01-15T12:48:45;11.90;;;4.07;;
43676;SDS011;29275;48.800;18.102;2023-01-15T12:52:03;6.35;;;4.07;;
43676;SDS011;29275;48.800;18.102;2023-01-15T12:55:12;7.93;;;4.57;;
43676;SDS011;29275;48.800;18.102;2023-01-15T13:05:56;7.43;;;3.95;;
43676;SDS011;29275;48.800;18.102;2023-01-15T13:09:03;6.30;;;3.70;;
43676;SDS011;29275;48.800;18.102;2023-01-15T13:12:13;7.20;;;3.25;;
43676;SDS011;29275;48.800;18.102;2023-01-15T13:15:17;8.32;;;4.00;;
43676;SDS011;29275;48.800;18.102;2023-01-15T13:18:25;7.97;;;3.67;;
43676;SDS011;29275;48.800;18.102;2023-01-15T13:21:55;6.82;;;3.13;;
43676;SDS011;29275;48.800;18.102;2023-01-15T13:28:40;7.20;;;3.03;;
43676;SDS011;29275;48.800;18.102;2023-01-15T13:38:36;7.07;;;3.60;;
43676;SDS011;29275;48.800;18.102;2023-01-15T13:41:42;6.18;;;3.22;;
43676;SDS011;29275;48.800;18.102;2023-01-15T13:45:06;7.75;;;3.40;;
43676;SDS011;29275;48.800;18.102;2023-01-15T13:48:29;5.60;;;3.35;;
43676;SDS011;29275;48.800;18.102;2023-01-15T13:51:37;5.80;;;3.30;;
43676;SDS011;29275;48.800;18.102;2023-01-15T13:54:48;11.88;;;4.22;;
43676;SDS011;29275;48.800;18.102;2023-01-15T13:57:51;5.43;;;3.38;;
43676;SDS011;29275;48.800;18.102;2023-01-15T14:01:05;5.65;;;2.53;;
43676;SDS011;29275;48.800;18.102;2023-01-15T14:07:20;7.97;;;4.40;;
43676;SDS011;29275;48.800;18.102;2023-01-15T14:10:36;7.72;;;3.65;;
43676;SDS011;29275;48.800;18.102;2023-01-15T14:16:55;6.90;;;3.78;;
43676;SDS011;29275;48.800;18.102;2023-01-15T14:23:20;8.77;;;4.95;;
43676;SDS011;29275;48.800;18.102;2023-01-15T14:37:00;8.38;;;4.43;;
43676;SDS011;29275;48.800;18.102;2023-01-15T14:40:16;10.18;;;5.10;;
43676;SDS011;29275;48.800;18.102;2023-01-15T14:43:21;14.02;;;5.95;;
43676;SDS011;29275;48.800;18.102;2023-01-15T14:46:28;18.35;;;8.82;;
43676;SDS011;29275;48.800;18.102;2023-01-15T14:49:44;10.75;;;5.43;;
43676;SDS011;29275;48.800;18.102;2023-01-15T14:52:51;6.47;;;3.88;;
43676;SDS011;29275;48.800;18.102;2023-01-15T14:59:15;10.18;;;4.55;;
43676;SDS011;29275;48.800;18.102;2023-01-15T15:02:22;9.40;;;5.60;;
43676;SDS011;29275;48.800;18.102;2023-01-15T15:05:32;7.18;;;4.20;;
43676;SDS011;29275;48.800;18.102;2023-01-15T15:08:36;8.15;;;4.07;;
43676;SDS011;29275;48.800;18.102;2023-01-15T15:11:44;13.27;;;6.45;;
43676;SDS011;29275;48.800;18.102;2023-01-15T15:21:40;9.65;;;5.40;;
43676;SDS011;29275;48.800;18.102;2023-01-15T15:24:46;9.90;;;4.65;;
43676;SDS011;29275;48.800;18.102;2023-01-15T15:28:04;8.25;;;3.97;;
43676;SDS011;29275;48.800;18.102;2023-01-15T15:31:08;12.93;;;6.07;;
43676;SDS011;29275;48.800;18.102;2023-01-15T15:34:16;9.85;;;5.35;;
43676;SDS011;29275;48.800;18.102;2023-01-15T15:37:27;8.82;;;3.85;;
43676;SDS011;29275;48.800;18.102;2023-01-15T15:40:32;10.02;;;4.47;;
43676;SDS011;29275;48.800;18.102;2023-01-15T15:47:26;7.40;;;3.85;;
43676;SDS011;29275;48.800;18.102;2023-01-15T15:50:48;10.75;;;5.72;;
43676;SDS011;29275;48.800;18.102;2023-01-15T15:54:01;8.02;;;4.55;;
43676;SDS011;29275;48.800;18.102;2023-01-15T15:57:22;10.80;;;5.28;;
43676;SDS011;29275;48.800;18.102;2023-01-15T16:00:37;7.50;;;4.32;;
43676;SDS011;29275;48.800;18.102;2023-01-15T16:03:46;8.65;;;4.53;;
43676;SDS011;29275;48.800;18.102;2023-01-15T16:06:49;9.32;;;4.35;;
43676;SDS011;29275;48.800;18.102;2023-01-15T16:09:57;7.63;;;4.47;;
43676;SDS011;29275;48.800;18.102;2023-01-15T16:13:03;12.13;;;5.80;;
43676;SDS011;29275;48.800;18.102;2023-01-15T16:16:09;11.07;;;5.72;;
43676;SDS011;29275;48.800;18.102;2023-01-15T16:19:14;10.75;;;5.45;;
43676;SDS011;29275;48.800;18.102;2023-01-15T16:22:21;9.60;;;5.25;;
43676;SDS011;29275;48.800;18.102;2023-01-15T16:28:34;10.30;;;5.20;;
43676;SDS011;29275;48.800;18.102;2023-01-15T16:31:41;9.30;;;5.05;;
43676;SDS011;29275;48.800;18.102;2023-01-15T16:34:44;6.93;;;4.30;;
43676;SDS011;29275;48.800;18.102;2023-01-15T16:37:48;7.85;;;4.57;;
43676;SDS011;29275;48.800;18.102;2023-01-15T16:40:52;9.18;;;4.70;;
43676;SDS011;29275;48.800;18.102;2023-01-15T16:43:56;10.10;;;3.85;;
43676;SDS011;29275;48.800;18.102;2023-01-15T16:47:01;8.68;;;4.68;;
43676;SDS011;29275;48.800;18.102;2023-01-15T16:53:27;11.07;;;4.72;;
43676;SDS011;29275;48.800;18.102;2023-01-15T17:02:46;16.27;;;6.68;;
43676;SDS011;29275;48.800;18.102;2023-01-15T17:05:50;7.45;;;4.90;;
43676;SDS011;29275;48.800;18.102;2023-01-15T17:08:55;11.13;;;6.35;;
43676;SDS011;29275;48.800;18.102;2023-01-15T17:12:01;8.25;;;3.22;;
43676;SDS011;29275;48.800;18.102;2023-01-15T17:18:24;6.05;;;3.83;;
43676;SDS011;29275;48.800;18.102;2023-01-15T17:21:29;12.15;;;7.28;;
43676;SDS011;29275;48.800;18.102;2023-01-15T17:24:33;10.30;;;6.18;;
43676;SDS011;29275;48.800;18.102;2023-01-15T17:27:35;12.27;;;6.43;;
43676;SDS011;29275;48.800;18.102;2023-01-15T17:30:38;9.05;;;3.97;;
43676;SDS011;29275;48.800;18.102;2023-01-15T17:33:41;11.57;;;3.97;;
43676;SDS011;29275;48.800;18.102;2023-01-15T17:36:44;5.40;;;2.83;;
43676;SDS011;29275;48.800;18.102;2023-01-15T17:39:47;5.93;;;3.05;;
43676;SDS011;29275;48.800;18.102;2023-01-15T17:42:49;4.43;;;1.92;;
43676;SDS011;29275;48.800;18.102;2023-01-15T17:45:53;4.13;;;1.73;;
43676;SDS011;29275;48.800;18.102;2023-01-15T17:48:56;3.85;;;1.73;;
43676;SDS011;29275;48.800;18.102;2023-01-15T17:51:59;4.10;;;2.13;;
43676;SDS011;29275;48.800;18.102;2023-01-15T17:55:02;4.30;;;2.13;;
43676;SDS011;29275;48.800;18.102;2023-01-15T17:58:24;10.23;;;5.03;;
43676;SDS011;29275;48.800;18.102;2023-01-15T18:01:46;7.15;;;2.95;;
43676;SDS011;29275;48.800;18.102;2023-01-15T18:05:08;12.05;;;6.45;;
43676;SDS011;29275;48.800;18.102;2023-01-15T18:08:28;7.53;;;3.80;;
43676;SDS011;29275;48.800;18.102;2023-01-15T18:11:31;13.43;;;3.20;;
43676;SDS011;29275;48.800;18.102;2023-01-15T18:14:34;7.60;;;3.85;;
43676;SDS011;29275;48.800;18.102;2023-01-15T18:17:36;7.93;;;3.83;;
43676;SDS011;29275;48.800;18.102;2023-01-15T18:20:39;7.88;;;3.88;;
43676;SDS011;29275;48.800;18.102;2023-01-15T18:23:42;6.38;;;3.83;;
43676;SDS011;29275;48.800;18.102;2023-01-15T18:26:45;10.18;;;4.55;;
43676;SDS011;29275;48.800;18.102;2023-01-15T18:29:48;7.47;;;4.72;;
43676;SDS011;29275;48.800;18.102;2023-01-15T18:32:50;11.52;;;6.60;;
43676;SDS011;29275;48.800;18.102;2023-01-15T18:36:01;12.07;;;6.40;;
43676;SDS011;29275;48.800;18.102;2023-01-15T18:39:05;13.80;;;6.45;;
43676;SDS011;29275;48.800;18.102;2023-01-15T18:42:09;19.33;;;11.57;;
43676;SDS011;29275;48.800;18.102;2023-01-15T18:45:12;15.25;;;8.70;;
43676;SDS011;29275;48.800;18.102;2023-01-15T18:48:33;15.45;;;7.40;;
43676;SDS011;29275;48.800;18.102;2023-01-15T18:51:36;11.00;;;7.15;;
43676;SDS011;29275;48.800;18.102;2023-01-15T18:54:39;12.10;;;6.30;;
43676;SDS011;29275;48.800;18.102;2023-01-15T18:57:41;10.90;;;6.13;;
43676;SDS011;29275;48.800;18.102;2023-01-15T19:00:44;16.80;;;8.73;;
43676;SDS011;29275;48.800;18.102;2023-01-15T19:03:47;10.50;;;4.63;;
43676;SDS011;29275;48.800;18.102;2023-01-15T19:06:50;6.00;;;4.10;;
43676;SDS011;29275;48.800;18.102;2023-01-15T19:09:53;17.77;;;9.32;;
43676;SDS011;29275;48.800;18.102;2023-01-15T19:12:56;14.57;;;7.50;;
43676;SDS011;29275;48.800;18.102;2023-01-15T19:15:59;16.60;;;9.38;;
43676;SDS011;29275;48.800;18.102;2023-01-15T19:19:20;15.23;;;6.10;;
43676;SDS011;29275;48.800;18.102;2023-01-15T19:22:23;7.35;;;4.63;;
43676;SDS011;29275;48.800;18.102;2023-01-15T19:25:45;5.88;;;3.03;;
43676;SDS011;29275;48.800;18.102;2023-01-15T19:28:50;8.57;;;5.55;;
43676;SDS011;29275;48.800;18.102;2023-01-15T19:31:53;9.75;;;4.53;;
43676;SDS011;29275;48.800;18.102;2023-01-15T19:34:56;14.02;;;4.70;;
43676;SDS011;29275;48.800;18.102;2023-01-15T19:38:01;10.60;;;5.40;;
43676;SDS011;29275;48.800;18.102;2023-01-15T19:41:08;8.15;;;3.30;;
43676;SDS011;29275;48.800;18.102;2023-01-15T19:44:32;7.35;;;3.55;;
43676;SDS011;29275;48.800;18.102;2023-01-15T19:47:53;20.50;;;8.18;;
43676;SDS011;29275;48.800;18.102;2023-01-15T19:51:15;7.90;;;4.70;;
43676;SDS011;29275;48.800;18.102;2023-01-15T19:54:18;7.68;;;4.10;;
43676;SDS011;29275;48.800;18.102;2023-01-15T19:57:41;13.45;;;7.72;;
43676;SDS011;29275;48.800;18.102;2023-01-15T20:00:46;15.65;;;8.90;;
43676;SDS011;29275;48.800;18.102;2023-01-15T20:03:50;14.32;;;8.52;;
43676;SDS011;29275;48.800;18.102;2023-01-15T20:06:52;13.52;;;6.93;;
43676;SDS011;29275;48.800;18.102;2023-01-15T20:09:55;17.85;;;10.52;;
43676;SDS011;29275;48.800;18.102;2023-01-15T20:12:58;15.35;;;8.20;;
43676;SDS011;29275;48.800;18.102;2023-01-15T20:16:20;30.45;;;13.52;;
43676;SDS011;29275;48.800;18.102;2023-01-15T20:19:23;23.17;;;11.68;;
43676;SDS011;29275;48.800;18.102;2023-01-15T20:22:29;22.40;;;12.65;;
43676;SDS011;29275;48.800;18.102;2023-01-15T20:25:33;13.63;;;5.77;;
43676;SDS011;29275;48.800;18.102;2023-01-15T20:28:37;7.43;;;4.22;;
43676;SDS011;29275;48.800;18.102;2023-01-15T20:31:42;126.57;;;36.38;;
43676;SDS011;29275;48.800;18.102;2023-01-15T20:34:45;82.70;;;25.50;;